Terminal Aerodrome Forecast
Issued by NWS Sterling, VA

Current Version | Previous Version | Graphics & Text | Print | Product List | Glossary On
Versions: 1 2 3 4 5 6 7 8 9 10 11 12 13 14 15 16 17 18 19 20 21 22 23 24
000
FTUS41 KLWX 171456 AAA
TAFIAD
TAF AMD
KIAD 171456Z 1715/1818 VRB04KT P6SM BKN025
     FM171800 07005KT P6SM BKN050
     FM180100 VRB03KT P6SM SCT050
     FM180900 03004KT 3SM BR BKN008
     FM181300 03005KT P6SM BKN025=

USA.gov is the U.S. government's official web portal to all federal, state and local government web resources and services.